sensor_id;sensor_type;location;lat;lon;timestamp;P1;durP1;ratioP1;P2;durP2;ratioP2
51921;SDS011;37948;53.260;6.394;2023-03-01T00:01:22;11.50;;;7.75;;
51921;SDS011;37948;53.260;6.394;2023-03-01T00:03:50;14.88;;;9.65;;
51921;SDS011;37948;53.260;6.394;2023-03-01T00:06:17;13.38;;;8.40;;
51921;SDS011;37948;53.260;6.394;2023-03-01T00:08:43;7.47;;;6.20;;
51921;SDS011;37948;53.260;6.394;2023-03-01T00:11:17;14.00;;;9.18;;
51921;SDS011;37948;53.260;6.394;2023-03-01T00:13:49;11.05;;;7.38;;
51921;SDS011;37948;53.260;6.394;2023-03-01T00:16:23;24.88;;;10.75;;
51921;SDS011;37948;53.260;6.394;2023-03-01T00:18:51;19.13;;;11.60;;
51921;SDS011;37948;53.260;6.394;2023-03-01T00:21:19;18.42;;;11.60;;
51921;SDS011;37948;53.260;6.394;2023-03-01T00:23:47;32.58;;;10.98;;
51921;SDS011;37948;53.260;6.394;2023-03-01T00:26:13;13.55;;;8.35;;
51921;SDS011;37948;53.260;6.394;2023-03-01T00:28:41;10.23;;;7.57;;
51921;SDS011;37948;53.260;6.394;2023-03-01T00:31:18;7.38;;;5.53;;
51921;SDS011;37948;53.260;6.394;2023-03-01T00:33:45;6.70;;;5.45;;
51921;SDS011;37948;53.260;6.394;2023-03-01T00:36:12;6.25;;;5.35;;
51921;SDS011;37948;53.260;6.394;2023-03-01T00:38:39;6.80;;;5.75;;
51921;SDS011;37948;53.260;6.394;2023-03-01T00:41:08;6.18;;;5.57;;
51921;SDS011;37948;53.260;6.394;2023-03-01T00:43:35;6.40;;;5.63;;
51921;SDS011;37948;53.260;6.394;2023-03-01T00:46:04;5.85;;;5.00;;
51921;SDS011;37948;53.260;6.394;2023-03-01T00:48:32;6.20;;;5.10;;
51921;SDS011;37948;53.260;6.394;2023-03-01T00:51:03;5.90;;;5.28;;
51921;SDS011;37948;53.260;6.394;2023-03-01T00:53:33;16.95;;;6.53;;
51921;SDS011;37948;53.260;6.394;2023-03-01T00:55:59;38.45;;;8.82;;
51921;SDS011;37948;53.260;6.394;2023-03-01T00:58:25;10.80;;;7.22;;
51921;SDS011;37948;53.260;6.394;2023-03-01T01:00:51;11.95;;;7.40;;
51921;SDS011;37948;53.260;6.394;2023-03-01T01:03:19;122.28;;;8.15;;
51921;SDS011;37948;53.260;6.394;2023-03-01T01:05:45;130.50;;;7.78;;
51921;SDS011;37948;53.260;6.394;2023-03-01T01:08:11;87.85;;;7.22;;
51921;SDS011;37948;53.260;6.394;2023-03-01T01:10:36;69.05;;;6.90;;
51921;SDS011;37948;53.260;6.394;2023-03-01T01:13:02;75.20;;;7.03;;
51921;SDS011;37948;53.260;6.394;2023-03-01T01:15:28;67.43;;;5.97;;
51921;SDS011;37948;53.260;6.394;2023-03-01T01:17:57;36.25;;;5.40;;
51921;SDS011;37948;53.260;6.394;2023-03-01T01:20:23;17.85;;;4.55;;
51921;SDS011;37948;53.260;6.394;2023-03-01T01:22:49;39.30;;;4.60;;
51921;SDS011;37948;53.260;6.394;2023-03-01T01:25:16;36.72;;;5.20;;
51921;SDS011;37948;53.260;6.394;2023-03-01T01:27:42;29.40;;;4.43;;
51921;SDS011;37948;53.260;6.394;2023-03-01T01:30:07;24.33;;;4.70;;
51921;SDS011;37948;53.260;6.394;2023-03-01T01:32:33;17.75;;;4.78;;
51921;SDS011;37948;53.260;6.394;2023-03-01T01:34:59;22.00;;;4.95;;
51921;SDS011;37948;53.260;6.394;2023-03-01T01:37:25;27.58;;;4.85;;
51921;SDS011;37948;53.260;6.394;2023-03-01T01:39:56;35.67;;;4.60;;
51921;SDS011;37948;53.260;6.394;2023-03-01T01:42:24;25.98;;;4.40;;
51921;SDS011;37948;53.260;6.394;2023-03-01T01:45:15;42.33;;;4.20;;
51921;SDS011;37948;53.260;6.394;2023-03-01T01:47:53;20.95;;;4.13;;
51921;SDS011;37948;53.260;6.394;2023-03-01T01:50:20;99.30;;;8.00;;
51921;SDS011;37948;53.260;6.394;2023-03-01T01:52:47;41.75;;;5.63;;
51921;SDS011;37948;53.260;6.394;2023-03-01T01:55:15;88.20;;;6.28;;
51921;SDS011;37948;53.260;6.394;2023-03-01T01:58:04;65.80;;;5.78;;
51921;SDS011;37948;53.260;6.394;2023-03-01T02:00:33;69.88;;;5.30;;
51921;SDS011;37948;53.260;6.394;2023-03-01T02:03:23;67.82;;;5.60;;
51921;SDS011;37948;53.260;6.394;2023-03-01T02:08:19;142.82;;;7.00;;
51921;SDS011;37948;53.260;6.394;2023-03-01T02:10:46;57.22;;;6.47;;
51921;SDS011;37948;53.260;6.394;2023-03-01T02:13:14;38.83;;;5.47;;
51921;SDS011;37948;53.260;6.394;2023-03-01T02:15:40;29.90;;;4.80;;
51921;SDS011;37948;53.260;6.394;2023-03-01T02:18:06;62.92;;;4.90;;
51921;SDS011;37948;53.260;6.394;2023-03-01T02:23:21;9.75;;;4.47;;
51921;SDS011;37948;53.260;6.394;2023-03-01T02:25:52;4.90;;;4.40;;
51921;SDS011;37948;53.260;6.394;2023-03-01T02:28:58;9.32;;;4.93;;
51921;SDS011;37948;53.260;6.394;2023-03-01T02:31:24;5.32;;;4.65;;
51921;SDS011;37948;53.260;6.394;2023-03-01T02:34:09;4.95;;;4.47;;
51921;SDS011;37948;53.260;6.394;2023-03-01T02:36:47;5.28;;;4.65;;
51921;SDS011;37948;53.260;6.394;2023-03-01T02:39:23;5.30;;;4.80;;
51921;SDS011;37948;53.260;6.394;2023-03-01T02:41:55;7.45;;;5.50;;
51921;SDS011;37948;53.260;6.394;2023-03-01T02:44:22;8.15;;;6.63;;
51921;SDS011;37948;53.260;6.394;2023-03-01T02:46:49;9.45;;;6.65;;
51921;SDS011;37948;53.260;6.394;2023-03-01T02:52:04;9.68;;;6.95;;
51921;SDS011;37948;53.260;6.394;2023-03-01T02:55:04;9.55;;;7.20;;
51921;SDS011;37948;53.260;6.394;2023-03-01T02:57:34;7.90;;;5.83;;
51921;SDS011;37948;53.260;6.394;2023-03-01T03:00:03;9.32;;;7.60;;
51921;SDS011;37948;53.260;6.394;2023-03-01T03:02:32;8.38;;;6.47;;
51921;SDS011;37948;53.260;6.394;2023-03-01T03:05:11;7.35;;;6.40;;
51921;SDS011;37948;53.260;6.394;2023-03-01T03:07:42;6.85;;;5.90;;
51921;SDS011;37948;53.260;6.394;2023-03-01T03:10:15;7.35;;;6.00;;
51921;SDS011;37948;53.260;6.394;2023-03-01T03:12:53;7.60;;;6.25;;
51921;SDS011;37948;53.260;6.394;2023-03-01T03:15:21;8.60;;;6.10;;
51921;SDS011;37948;53.260;6.394;2023-03-01T03:17:47;7.78;;;6.25;;
51921;SDS011;37948;53.260;6.394;2023-03-01T03:20:14;8.15;;;6.47;;
51921;SDS011;37948;53.260;6.394;2023-03-01T03:22:44;50.17;;;6.70;;
51921;SDS011;37948;53.260;6.394;2023-03-01T03:25:11;67.72;;;6.05;;
51921;SDS011;37948;53.260;6.394;2023-03-01T03:27:37;6.50;;;4.43;;
51921;SDS011;37948;53.260;6.394;2023-03-01T03:30:03;53.42;;;5.03;;
51921;SDS011;37948;53.260;6.394;2023-03-01T03:32:34;122.30;;;7.10;;
51921;SDS011;37948;53.260;6.394;2023-03-01T03:35:00;42.53;;;5.65;;
51921;SDS011;37948;53.260;6.394;2023-03-01T03:37:26;6.45;;;5.38;;
51921;SDS011;37948;53.260;6.394;2023-03-01T03:40:11;38.28;;;6.25;;
51921;SDS011;37948;53.260;6.394;2023-03-01T03:42:40;9.23;;;5.80;;
51921;SDS011;37948;53.260;6.394;2023-03-01T03:45:06;19.52;;;6.20;;
51921;SDS011;37948;53.260;6.394;2023-03-01T03:47:32;5.93;;;5.30;;
51921;SDS011;37948;53.260;6.394;2023-03-01T03:49:57;7.80;;;5.70;;
51921;SDS011;37948;53.260;6.394;2023-03-01T03:52:23;24.77;;;6.25;;
51921;SDS011;37948;53.260;6.394;2023-03-01T03:54:49;10.48;;;5.38;;
51921;SDS011;37948;53.260;6.394;2023-03-01T03:57:14;16.25;;;5.25;;
51921;SDS011;37948;53.260;6.394;2023-03-01T03:59:40;7.07;;;5.47;;
51921;SDS011;37948;53.260;6.394;2023-03-01T04:02:05;7.28;;;5.85;;
51921;SDS011;37948;53.260;6.394;2023-03-01T04:04:33;10.68;;;5.70;;
51921;SDS011;37948;53.260;6.394;2023-03-01T04:06:59;17.73;;;5.55;;
51921;SDS011;37948;53.260;6.394;2023-03-01T04:09:25;7.00;;;6.13;;
51921;SDS011;37948;53.260;6.394;2023-03-01T04:11:50;15.18;;;5.55;;
51921;SDS011;37948;53.260;6.394;2023-03-01T04:14:16;6.43;;;5.53;;
51921;SDS011;37948;53.260;6.394;2023-03-01T04:16:42;6.65;;;5.80;;
51921;SDS011;37948;53.260;6.394;2023-03-01T04:19:07;7.53;;;6.03;;
51921;SDS011;37948;53.260;6.394;2023-03-01T04:21:34;7.28;;;5.65;;
51921;SDS011;37948;53.260;6.394;2023-03-01T04:24:01;5.95;;;5.28;;
51921;SDS011;37948;53.260;6.394;2023-03-01T04:26:28;7.60;;;6.03;;
51921;SDS011;37948;53.260;6.394;2023-03-01T04:28:54;6.53;;;5.53;;
51921;SDS011;37948;53.260;6.394;2023-03-01T04:31:20;7.35;;;5.47;;
51921;SDS011;37948;53.260;6.394;2023-03-01T04:36:13;5.85;;;5.22;;
51921;SDS011;37948;53.260;6.394;2023-03-01T04:38:41;6.05;;;5.43;;
51921;SDS011;37948;53.260;6.394;2023-03-01T04:41:08;6.70;;;5.90;;
51921;SDS011;37948;53.260;6.394;2023-03-01T04:43:36;6.22;;;5.57;;
51921;SDS011;37948;53.260;6.394;2023-03-01T04:46:09;5.20;;;4.70;;
51921;SDS011;37948;53.260;6.394;2023-03-01T04:48:37;5.28;;;4.78;;
51921;SDS011;37948;53.260;6.394;2023-03-01T04:51:04;4.90;;;4.50;;
51921;SDS011;37948;53.260;6.394;2023-03-01T04:53:30;5.10;;;4.60;;
51921;SDS011;37948;53.260;6.394;2023-03-01T04:55:57;5.90;;;5.40;;
51921;SDS011;37948;53.260;6.394;2023-03-01T04:58:23;5.07;;;4.60;;
51921;SDS011;37948;53.260;6.394;2023-03-01T05:00:50;4.97;;;4.47;;
51921;SDS011;37948;53.260;6.394;2023-03-01T05:03:16;5.90;;;5.28;;
51921;SDS011;37948;53.260;6.394;2023-03-01T05:05:43;5.63;;;5.03;;
51921;SDS011;37948;53.260;6.394;2023-03-01T05:08:11;5.28;;;4.78;;
51921;SDS011;37948;53.260;6.394;2023-03-01T05:10:42;5.05;;;4.55;;
51921;SDS011;37948;53.260;6.394;2023-03-01T05:13:18;5.50;;;5.03;;
51921;SDS011;37948;53.260;6.394;2023-03-01T05:15:49;5.07;;;4.60;;
51921;SDS011;37948;53.260;6.394;2023-03-01T05:18:19;5.13;;;4.63;;
51921;SDS011;37948;53.260;6.394;2023-03-01T05:20:45;5.38;;;4.88;;
51921;SDS011;37948;53.260;6.394;2023-03-01T05:23:12;5.30;;;4.80;;
51921;SDS011;37948;53.260;6.394;2023-03-01T05:25:38;5.20;;;4.65;;
51921;SDS011;37948;53.260;6.394;2023-03-01T05:28:05;5.30;;;4.75;;
51921;SDS011;37948;53.260;6.394;2023-03-01T05:30:35;5.50;;;5.00;;
51921;SDS011;37948;53.260;6.394;2023-03-01T05:33:04;6.10;;;5.00;;
51921;SDS011;37948;53.260;6.394;2023-03-01T05:35:32;5.43;;;4.93;;
51921;SDS011;37948;53.260;6.394;2023-03-01T05:37:58;5.55;;;5.05;;
51921;SDS011;37948;53.260;6.394;2023-03-01T05:40:24;5.95;;;5.32;;
51921;SDS011;37948;53.260;6.394;2023-03-01T05:42:52;5.35;;;4.85;;
51921;SDS011;37948;53.260;6.394;2023-03-01T05:45:19;5.60;;;5.10;;
51921;SDS011;37948;53.260;6.394;2023-03-01T05:47:47;5.53;;;4.93;;
51921;SDS011;37948;53.260;6.394;2023-03-01T05:50:14;6.43;;;5.60;;
51921;SDS011;37948;53.260;6.394;2023-03-01T05:52:46;9.02;;;5.78;;
51921;SDS011;37948;53.260;6.394;2023-03-01T05:55:13;7.68;;;6.05;;
51921;SDS011;37948;53.260;6.394;2023-03-01T05:57:40;7.88;;;6.28;;
51921;SDS011;37948;53.260;6.394;2023-03-01T06:00:06;6.50;;;5.70;;
51921;SDS011;37948;53.260;6.394;2023-03-01T06:02:32;8.48;;;6.70;;
51921;SDS011;37948;53.260;6.394;2023-03-01T06:04:58;6.82;;;5.65;;
51921;SDS011;37948;53.260;6.394;2023-03-01T06:07:24;6.38;;;5.70;;
51921;SDS011;37948;53.260;6.394;2023-03-01T06:09:49;7.00;;;5.70;;
51921;SDS011;37948;53.260;6.394;2023-03-01T06:12:15;8.18;;;5.82;;
51921;SDS011;37948;53.260;6.394;2023-03-01T06:14:40;7.10;;;5.70;;
51921;SDS011;37948;53.260;6.394;2023-03-01T06:17:06;8.50;;;5.85;;
51921;SDS011;37948;53.260;6.394;2023-03-01T06:19:31;8.00;;;5.93;;
51921;SDS011;37948;53.260;6.394;2023-03-01T06:21:57;11.68;;;6.53;;
51921;SDS011;37948;53.260;6.394;2023-03-01T06:24:23;8.32;;;6.78;;
51921;SDS011;37948;53.260;6.394;2023-03-01T06:26:48;6.75;;;5.82;;
51921;SDS011;37948;53.260;6.394;2023-03-01T06:29:14;7.85;;;6.07;;
51921;SDS011;37948;53.260;6.394;2023-03-01T06:31:39;9.80;;;6.85;;
51921;SDS011;37948;53.260;6.394;2023-03-01T06:34:05;8.07;;;6.05;;
51921;SDS011;37948;53.260;6.394;2023-03-01T06:36:31;9.40;;;6.57;;
51921;SDS011;37948;53.260;6.394;2023-03-01T06:38:56;11.73;;;6.88;;
51921;SDS011;37948;53.260;6.394;2023-03-01T06:41:22;9.73;;;7.28;;
51921;SDS011;37948;53.260;6.394;2023-03-01T06:43:47;10.50;;;7.32;;
51921;SDS011;37948;53.260;6.394;2023-03-01T06:46:13;9.68;;;6.70;;
51921;SDS011;37948;53.260;6.394;2023-03-01T06:48:39;9.10;;;6.85;;
51921;SDS011;37948;53.260;6.394;2023-03-01T06:51:04;9.32;;;6.70;;
51921;SDS011;37948;53.260;6.394;2023-03-01T06:53:30;9.38;;;6.60;;
51921;SDS011;37948;53.260;6.394;2023-03-01T06:55:56;9.93;;;6.07;;
51921;SDS011;37948;53.260;6.394;2023-03-01T06:58:22;8.07;;;6.90;;
51921;SDS011;37948;53.260;6.394;2023-03-01T07:00:48;9.20;;;6.55;;
51921;SDS011;37948;53.260;6.394;2023-03-01T07:03:14;11.05;;;6.72;;
51921;SDS011;37948;53.260;6.394;2023-03-01T07:05:39;11.35;;;6.60;;
51921;SDS011;37948;53.260;6.394;2023-03-01T07:08:05;9.18;;;7.30;;
51921;SDS011;37948;53.260;6.394;2023-03-01T07:10:31;9.35;;;6.40;;
51921;SDS011;37948;53.260;6.394;2023-03-01T07:12:57;9.63;;;6.45;;
51921;SDS011;37948;53.260;6.394;2023-03-01T07:15:23;9.35;;;7.20;;
51921;SDS011;37948;53.260;6.394;2023-03-01T07:17:50;9.77;;;6.78;;
51921;SDS011;37948;53.260;6.394;2023-03-01T07:20:16;11.85;;;7.53;;
51921;SDS011;37948;53.260;6.394;2023-03-01T07:22:50;11.63;;;8.43;;
51921;SDS011;37948;53.260;6.394;2023-03-01T07:25:16;11.35;;;7.78;;
51921;SDS011;37948;53.260;6.394;2023-03-01T07:27:42;11.90;;;8.73;;
51921;SDS011;37948;53.260;6.394;2023-03-01T07:30:08;10.15;;;7.70;;
51921;SDS011;37948;53.260;6.394;2023-03-01T07:32:34;10.65;;;7.68;;
51921;SDS011;37948;53.260;6.394;2023-03-01T07:35:00;15.30;;;9.40;;
51921;SDS011;37948;53.260;6.394;2023-03-01T07:37:25;13.20;;;9.55;;
51921;SDS011;37948;53.260;6.394;2023-03-01T07:39:51;13.32;;;9.07;;
51921;SDS011;37948;53.260;6.394;2023-03-01T07:42:17;14.95;;;9.45;;
51921;SDS011;37948;53.260;6.394;2023-03-01T07:44:42;12.52;;;8.75;;
51921;SDS011;37948;53.260;6.394;2023-03-01T07:47:08;12.13;;;9.10;;
51921;SDS011;37948;53.260;6.394;2023-03-01T07:49:34;13.82;;;9.80;;
51921;SDS011;37948;53.260;6.394;2023-03-01T07:51:59;13.93;;;9.88;;
51921;SDS011;37948;53.260;6.394;2023-03-01T07:54:25;14.70;;;10.02;;
51921;SDS011;37948;53.260;6.394;2023-03-01T07:56:51;16.23;;;10.40;;
51921;SDS011;37948;53.260;6.394;2023-03-01T07:59:16;14.20;;;10.10;;
51921;SDS011;37948;53.260;6.394;2023-03-01T08:01:42;13.88;;;10.13;;
51921;SDS011;37948;53.260;6.394;2023-03-01T08:04:08;17.45;;;11.35;;
51921;SDS011;37948;53.260;6.394;2023-03-01T08:06:34;13.65;;;10.50;;
51921;SDS011;37948;53.260;6.394;2023-03-01T08:09:00;16.60;;;11.43;;
51921;SDS011;37948;53.260;6.394;2023-03-01T08:11:26;20.88;;;12.48;;
51921;SDS011;37948;53.260;6.394;2023-03-01T08:13:55;17.52;;;12.57;;
51921;SDS011;37948;53.260;6.394;2023-03-01T08:16:21;20.48;;;14.18;;
51921;SDS011;37948;53.260;6.394;2023-03-01T08:18:47;22.77;;;14.55;;
51921;SDS011;37948;53.260;6.394;2023-03-01T08:21:13;25.65;;;17.08;;
51921;SDS011;37948;53.260;6.394;2023-03-01T08:23:40;23.88;;;16.58;;
51921;SDS011;37948;53.260;6.394;2023-03-01T08:26:08;26.60;;;18.20;;
51921;SDS011;37948;53.260;6.394;2023-03-01T08:28:36;30.17;;;18.05;;
51921;SDS011;37948;53.260;6.394;2023-03-01T08:31:02;35.17;;;22.15;;
51921;SDS011;37948;53.260;6.394;2023-03-01T08:33:38;35.95;;;22.30;;
51921;SDS011;37948;53.260;6.394;2023-03-01T08:36:04;33.67;;;22.05;;
51921;SDS011;37948;53.260;6.394;2023-03-01T08:38:31;36.17;;;22.38;;
51921;SDS011;37948;53.260;6.394;2023-03-01T08:41:01;34.90;;;21.40;;
51921;SDS011;37948;53.260;6.394;2023-03-01T08:43:28;33.63;;;21.40;;
51921;SDS011;37948;53.260;6.394;2023-03-01T08:45:54;32.08;;;22.17;;
51921;SDS011;37948;53.260;6.394;2023-03-01T08:48:19;36.45;;;22.35;;
51921;SDS011;37948;53.260;6.394;2023-03-01T08:50:45;38.78;;;24.35;;
51921;SDS011;37948;53.260;6.394;2023-03-01T08:53:11;37.90;;;23.98;;
51921;SDS011;37948;53.260;6.394;2023-03-01T08:55:36;33.72;;;22.52;;
51921;SDS011;37948;53.260;6.394;2023-03-01T08:58:02;41.53;;;25.52;;
51921;SDS011;37948;53.260;6.394;2023-03-01T09:00:27;40.13;;;24.88;;
51921;SDS011;37948;53.260;6.394;2023-03-01T09:02:53;46.28;;;28.10;;
51921;SDS011;37948;53.260;6.394;2023-03-01T09:05:19;45.13;;;29.10;;
51921;SDS011;37948;53.260;6.394;2023-03-01T09:07:44;63.42;;;38.60;;
51921;SDS011;37948;53.260;6.394;2023-03-01T09:10:10;63.97;;;42.83;;
51921;SDS011;37948;53.260;6.394;2023-03-01T09:12:36;68.13;;;44.60;;
51921;SDS011;37948;53.260;6.394;2023-03-01T09:15:01;67.53;;;43.47;;
51921;SDS011;37948;53.260;6.394;2023-03-01T09:17:27;65.05;;;42.28;;
51921;SDS011;37948;53.260;6.394;2023-03-01T09:19:53;59.88;;;38.72;;
51921;SDS011;37948;53.260;6.394;2023-03-01T09:22:18;60.78;;;38.53;;
51921;SDS011;37948;53.260;6.394;2023-03-01T09:24:44;54.45;;;34.22;;
51921;SDS011;37948;53.260;6.394;2023-03-01T09:27:09;51.50;;;32.15;;
51921;SDS011;37948;53.260;6.394;2023-03-01T09:29:36;40.22;;;27.60;;
51921;SDS011;37948;53.260;6.394;2023-03-01T09:32:02;43.38;;;27.67;;
51921;SDS011;37948;53.260;6.394;2023-03-01T09:34:27;43.08;;;28.13;;
51921;SDS011;37948;53.260;6.394;2023-03-01T09:36:53;39.58;;;27.70;;
51921;SDS011;37948;53.260;6.394;2023-03-01T09:39:19;37.10;;;25.10;;
51921;SDS011;37948;53.260;6.394;2023-03-01T09:41:49;33.72;;;23.65;;
51921;SDS011;37948;53.260;6.394;2023-03-01T09:44:35;39.28;;;22.95;;
51921;SDS011;37948;53.260;6.394;2023-03-01T09:47:50;30.27;;;21.08;;
51921;SDS011;37948;53.260;6.394;2023-03-01T09:52:43;31.63;;;21.05;;
51921;SDS011;37948;53.260;6.394;2023-03-01T09:55:14;35.42;;;20.00;;
51921;SDS011;37948;53.260;6.394;2023-03-01T09:57:47;28.52;;;17.88;;
51921;SDS011;37948;53.260;6.394;2023-03-01T10:00:32;28.15;;;17.52;;
51921;SDS011;37948;53.260;6.394;2023-03-01T10:08:28;25.92;;;17.42;;
51921;SDS011;37948;53.260;6.394;2023-03-01T10:10:58;24.40;;;16.70;;
51921;SDS011;37948;53.260;6.394;2023-03-01T10:13:26;24.60;;;16.48;;
51921;SDS011;37948;53.260;6.394;2023-03-01T10:16:36;21.67;;;15.48;;
51921;SDS011;37948;53.260;6.394;2023-03-01T10:19:22;24.00;;;15.85;;
51921;SDS011;37948;53.260;6.394;2023-03-01T10:22:12;20.52;;;14.85;;
51921;SDS011;37948;53.260;6.394;2023-03-01T10:24:49;18.77;;;14.75;;
51921;SDS011;37948;53.260;6.394;2023-03-01T10:32:41;23.63;;;13.98;;
51921;SDS011;37948;53.260;6.394;2023-03-01T10:35:21;18.58;;;14.35;;
51921;SDS011;37948;53.260;6.394;2023-03-01T10:40:31;16.05;;;12.35;;
51921;SDS011;37948;53.260;6.394;2023-03-01T10:43:00;18.45;;;13.18;;
51921;SDS011;37948;53.260;6.394;2023-03-01T10:45:35;17.23;;;12.90;;
51921;SDS011;37948;53.260;6.394;2023-03-01T10:50:43;13.38;;;11.98;;
51921;SDS011;37948;53.260;6.394;2023-03-01T10:53:21;20.48;;;12.27;;
51921;SDS011;37948;53.260;6.394;2023-03-01T10:55:56;42.55;;;12.73;;
51921;SDS011;37948;53.260;6.394;2023-03-01T10:58:37;15.85;;;11.80;;
51921;SDS011;37948;53.260;6.394;2023-03-01T11:01:05;18.40;;;11.82;;
51921;SDS011;37948;53.260;6.394;2023-03-01T11:04:03;23.73;;;11.77;;
51921;SDS011;37948;53.260;6.394;2023-03-01T11:06:39;17.13;;;12.65;;
51921;SDS011;37948;53.260;6.394;2023-03-01T11:09:17;17.13;;;12.98;;
51921;SDS011;37948;53.260;6.394;2023-03-01T11:11:52;16.08;;;12.52;;
51921;SDS011;37948;53.260;6.394;2023-03-01T11:14:23;16.65;;;12.27;;
51921;SDS011;37948;53.260;6.394;2023-03-01T11:17:05;17.20;;;11.90;;
51921;SDS011;37948;53.260;6.394;2023-03-01T11:19:37;16.80;;;12.85;;
51921;SDS011;37948;53.260;6.394;2023-03-01T11:22:13;18.15;;;12.45;;
51921;SDS011;37948;53.260;6.394;2023-03-01T11:24:48;15.88;;;12.05;;
51921;SDS011;37948;53.260;6.394;2023-03-01T11:27:23;17.42;;;12.43;;
51921;SDS011;37948;53.260;6.394;2023-03-01T11:29:56;24.17;;;12.95;;
51921;SDS011;37948;53.260;6.394;2023-03-01T11:32:32;19.83;;;13.25;;
51921;SDS011;37948;53.260;6.394;2023-03-01T11:35:09;16.58;;;12.48;;
51921;SDS011;37948;53.260;6.394;2023-03-01T11:37:50;16.38;;;12.80;;
51921;SDS011;37948;53.260;6.394;2023-03-01T11:40:32;18.00;;;13.68;;
51921;SDS011;37948;53.260;6.394;2023-03-01T11:43:14;16.23;;;13.50;;
51921;SDS011;37948;53.260;6.394;2023-03-01T12:00:13;17.52;;;10.30;;
51921;SDS011;37948;53.260;6.394;2023-03-01T12:05:59;14.93;;;10.55;;
51921;SDS011;37948;53.260;6.394;2023-03-01T12:12:11;13.32;;;10.63;;
51921;SDS011;37948;53.260;6.394;2023-03-01T12:18:02;13.27;;;9.90;;
51921;SDS011;37948;53.260;6.394;2023-03-01T12:26:35;16.33;;;10.38;;
51921;SDS011;37948;53.260;6.394;2023-03-01T12:29:59;10.75;;;8.55;;
51921;SDS011;37948;53.260;6.394;2023-03-01T12:43:47;15.50;;;10.27;;
51921;SDS011;37948;53.260;6.394;2023-03-01T12:49:07;15.30;;;11.52;;
51921;SDS011;37948;53.260;6.394;2023-03-01T12:51:51;13.55;;;9.65;;
51921;SDS011;37948;53.260;6.394;2023-03-01T12:54:26;11.80;;;8.82;;
51921;SDS011;37948;53.260;6.394;2023-03-01T12:56:57;9.55;;;7.68;;
51921;SDS011;37948;53.260;6.394;2023-03-01T13:00:02;10.82;;;8.68;;
51921;SDS011;37948;53.260;6.394;2023-03-01T13:11:15;13.75;;;9.23;;
51921;SDS011;37948;53.260;6.394;2023-03-01T13:13:43;10.23;;;8.88;;
51921;SDS011;37948;53.260;6.394;2023-03-01T13:16:22;14.43;;;9.15;;
51921;SDS011;37948;53.260;6.394;2023-03-01T13:21:41;12.00;;;9.23;;
51921;SDS011;37948;53.260;6.394;2023-03-01T13:32:22;16.67;;;7.63;;
51921;SDS011;37948;53.260;6.394;2023-03-01T13:34:50;10.55;;;8.75;;
51921;SDS011;37948;53.260;6.394;2023-03-01T13:37:19;12.57;;;9.63;;
51921;SDS011;37948;53.260;6.394;2023-03-01T13:39:46;12.93;;;9.88;;
51921;SDS011;37948;53.260;6.394;2023-03-01T13:42:32;13.18;;;9.65;;
51921;SDS011;37948;53.260;6.394;2023-03-01T13:47:54;11.90;;;10.05;;
51921;SDS011;37948;53.260;6.394;2023-03-01T13:50:31;12.38;;;9.70;;
51921;SDS011;37948;53.260;6.394;2023-03-01T13:53:03;18.08;;;11.20;;
51921;SDS011;37948;53.260;6.394;2023-03-01T13:55:40;13.20;;;10.30;;
51921;SDS011;37948;53.260;6.394;2023-03-01T13:58:14;16.35;;;10.68;;
51921;SDS011;37948;53.260;6.394;2023-03-01T14:00:46;13.95;;;10.43;;
51921;SDS011;37948;53.260;6.394;2023-03-01T14:03:19;13.65;;;10.02;;
51921;SDS011;37948;53.260;6.394;2023-03-01T14:06:19;14.43;;;10.20;;
51921;SDS011;37948;53.260;6.394;2023-03-01T14:08:38;14.07;;;10.95;;
51921;SDS011;37948;53.260;6.394;2023-03-01T14:11:13;15.40;;;10.73;;
51921;SDS011;37948;53.260;6.394;2023-03-01T14:14:14;14.27;;;10.65;;
51921;SDS011;37948;53.260;6.394;2023-03-01T14:16:48;13.88;;;11.32;;
51921;SDS011;37948;53.260;6.394;2023-03-01T14:19:26;15.25;;;11.13;;
51921;SDS011;37948;53.260;6.394;2023-03-01T14:24:59;13.00;;;10.25;;
51921;SDS011;37948;53.260;6.394;2023-03-01T14:27:37;13.65;;;9.93;;
51921;SDS011;37948;53.260;6.394;2023-03-01T14:33:03;13.57;;;10.25;;
51921;SDS011;37948;53.260;6.394;2023-03-01T14:35:32;13.07;;;10.23;;
51921;SDS011;37948;53.260;6.394;2023-03-01T14:38:00;12.80;;;10.60;;
51921;SDS011;37948;53.260;6.394;2023-03-01T14:42:52;12.23;;;9.63;;
51921;SDS011;37948;53.260;6.394;2023-03-01T14:45:20;14.63;;;9.75;;
51921;SDS011;37948;53.260;6.394;2023-03-01T14:47:46;12.48;;;9.10;;
51921;SDS011;37948;53.260;6.394;2023-03-01T14:50:23;11.50;;;9.40;;
51921;SDS011;37948;53.260;6.394;2023-03-01T14:52:55;18.73;;;9.38;;
51921;SDS011;37948;53.260;6.394;2023-03-01T14:55:30;12.48;;;9.00;;
51921;SDS011;37948;53.260;6.394;2023-03-01T14:58:00;11.32;;;8.75;;
51921;SDS011;37948;53.260;6.394;2023-03-01T15:00:30;10.80;;;8.75;;
51921;SDS011;37948;53.260;6.394;2023-03-01T15:03:01;11.82;;;8.63;;
51921;SDS011;37948;53.260;6.394;2023-03-01T15:05:34;12.00;;;8.90;;
51921;SDS011;37948;53.260;6.394;2023-03-01T15:08:01;12.43;;;9.48;;
51921;SDS011;37948;53.260;6.394;2023-03-01T15:10:33;10.40;;;8.68;;
51921;SDS011;37948;53.260;6.394;2023-03-01T15:13:22;11.23;;;9.32;;
51921;SDS011;37948;53.260;6.394;2023-03-01T15:15:48;10.10;;;8.43;;
51921;SDS011;37948;53.260;6.394;2023-03-01T15:18:19;13.05;;;8.57;;
51921;SDS011;37948;53.260;6.394;2023-03-01T15:20:47;8.98;;;8.07;;
51921;SDS011;37948;53.260;6.394;2023-03-01T15:23:22;9.55;;;8.55;;
51921;SDS011;37948;53.260;6.394;2023-03-01T15:25:52;9.80;;;8.43;;
51921;SDS011;37948;53.260;6.394;2023-03-01T15:28:23;9.88;;;8.27;;
51921;SDS011;37948;53.260;6.394;2023-03-01T15:30:55;13.38;;;9.23;;
51921;SDS011;37948;53.260;6.394;2023-03-01T15:35:50;10.52;;;9.27;;
51921;SDS011;37948;53.260;6.394;2023-03-01T15:38:30;11.95;;;9.75;;
51921;SDS011;37948;53.260;6.394;2023-03-01T15:41:00;13.77;;;10.13;;
51921;SDS011;37948;53.260;6.394;2023-03-01T15:43:37;13.65;;;9.77;;
51921;SDS011;37948;53.260;6.394;2023-03-01T15:46:05;12.15;;;10.23;;
51921;SDS011;37948;53.260;6.394;2023-03-01T15:48:50;13.93;;;11.00;;
51921;SDS011;37948;53.260;6.394;2023-03-01T15:51:37;14.93;;;12.02;;
51921;SDS011;37948;53.260;6.394;2023-03-01T15:54:07;16.98;;;11.30;;
51921;SDS011;37948;53.260;6.394;2023-03-01T15:56:46;17.95;;;12.38;;
51921;SDS011;37948;53.260;6.394;2023-03-01T15:59:12;15.95;;;11.77;;
51921;SDS011;37948;53.260;6.394;2023-03-01T16:01:41;15.10;;;11.35;;
51921;SDS011;37948;53.260;6.394;2023-03-01T16:04:14;15.00;;;11.63;;
51921;SDS011;37948;53.260;6.394;2023-03-01T16:06:46;17.35;;;11.93;;
51921;SDS011;37948;53.260;6.394;2023-03-01T16:09:19;17.63;;;13.75;;
51921;SDS011;37948;53.260;6.394;2023-03-01T16:11:49;17.23;;;12.85;;
51921;SDS011;37948;53.260;6.394;2023-03-01T16:14:16;14.93;;;12.07;;
51921;SDS011;37948;53.260;6.394;2023-03-01T16:16:42;16.83;;;12.80;;
51921;SDS011;37948;53.260;6.394;2023-03-01T16:19:09;14.20;;;11.77;;
51921;SDS011;37948;53.260;6.394;2023-03-01T16:21:35;16.00;;;12.18;;
51921;SDS011;37948;53.260;6.394;2023-03-01T16:24:01;17.45;;;12.77;;
51921;SDS011;37948;53.260;6.394;2023-03-01T16:26:27;20.23;;;13.07;;
51921;SDS011;37948;53.260;6.394;2023-03-01T16:28:56;16.58;;;13.52;;
51921;SDS011;37948;53.260;6.394;2023-03-01T16:31:22;15.73;;;11.40;;
51921;SDS011;37948;53.260;6.394;2023-03-01T16:33:48;16.73;;;13.30;;
51921;SDS011;37948;53.260;6.394;2023-03-01T16:36:16;22.00;;;13.80;;
51921;SDS011;37948;53.260;6.394;2023-03-01T16:38:42;17.65;;;13.38;;